sensor_id;sensor_type;location;lat;lon;timestamp;P1;durP1;ratioP1;P2;durP2;ratioP2
32198;SDS011;73953;42.656;21.156;2024-02-04T00:02:13;40.20;;;24.13;;
32198;SDS011;73953;42.656;21.156;2024-02-04T00:04:41;44.92;;;26.00;;
32198;SDS011;73953;42.656;21.156;2024-02-04T00:07:08;41.75;;;24.70;;
32198;SDS011;73953;42.656;21.156;2024-02-04T00:09:36;44.28;;;26.70;;
32198;SDS011;73953;42.656;21.156;2024-02-04T00:12:03;40.25;;;23.35;;
32198;SDS011;73953;42.656;21.156;2024-02-04T00:14:31;42.72;;;24.17;;
32198;SDS011;73953;42.656;21.156;2024-02-04T00:16:58;39.67;;;23.45;;
32198;SDS011;73953;42.656;21.156;2024-02-04T00:19:26;36.15;;;24.15;;
32198;SDS011;73953;42.656;21.156;2024-02-04T00:21:53;38.47;;;22.98;;
32198;SDS011;73953;42.656;21.156;2024-02-04T00:24:20;41.15;;;22.00;;
32198;SDS011;73953;42.656;21.156;2024-02-04T00:26:48;43.50;;;24.08;;
32198;SDS011;73953;42.656;21.156;2024-02-04T00:29:15;45.85;;;23.67;;
32198;SDS011;73953;42.656;21.156;2024-02-04T00:31:42;45.35;;;25.20;;
32198;SDS011;73953;42.656;21.156;2024-02-04T00:34:09;44.65;;;24.23;;
32198;SDS011;73953;42.656;21.156;2024-02-04T00:36:37;50.47;;;29.20;;
32198;SDS011;73953;42.656;21.156;2024-02-04T00:39:04;45.38;;;26.73;;
32198;SDS011;73953;42.656;21.156;2024-02-04T00:41:31;47.67;;;27.25;;
32198;SDS011;73953;42.656;21.156;2024-02-04T00:43:59;56.40;;;30.25;;
32198;SDS011;73953;42.656;21.156;2024-02-04T00:46:26;61.20;;;31.95;;
32198;SDS011;73953;42.656;21.156;2024-02-04T00:48:53;64.50;;;34.38;;
32198;SDS011;73953;42.656;21.156;2024-02-04T00:51:20;84.35;;;43.92;;
32198;SDS011;73953;42.656;21.156;2024-02-04T00:53:47;86.07;;;44.47;;
32198;SDS011;73953;42.656;21.156;2024-02-04T00:56:14;86.78;;;42.40;;
32198;SDS011;73953;42.656;21.156;2024-02-04T00:58:41;71.30;;;36.90;;
32198;SDS011;73953;42.656;21.156;2024-02-04T01:01:08;58.25;;;32.40;;
32198;SDS011;73953;42.656;21.156;2024-02-04T01:03:35;60.83;;;29.30;;
32198;SDS011;73953;42.656;21.156;2024-02-04T01:06:05;43.22;;;25.05;;
32198;SDS011;73953;42.656;21.156;2024-02-04T01:08:32;36.75;;;20.65;;
32198;SDS011;73953;42.656;21.156;2024-02-04T01:11:01;28.33;;;16.13;;
32198;SDS011;73953;42.656;21.156;2024-02-04T01:13:28;29.65;;;17.42;;
32198;SDS011;73953;42.656;21.156;2024-02-04T01:15:55;36.80;;;18.45;;
32198;SDS011;73953;42.656;21.156;2024-02-04T01:18:22;37.30;;;18.83;;
32198;SDS011;73953;42.656;21.156;2024-02-04T01:20:49;27.63;;;16.85;;
32198;SDS011;73953;42.656;21.156;2024-02-04T01:23:16;26.75;;;17.30;;
32198;SDS011;73953;42.656;21.156;2024-02-04T01:25:45;30.58;;;18.25;;
32198;SDS011;73953;42.656;21.156;2024-02-04T01:28:12;31.80;;;18.83;;
32198;SDS011;73953;42.656;21.156;2024-02-04T01:30:39;46.35;;;25.45;;
32198;SDS011;73953;42.656;21.156;2024-02-04T01:33:08;35.45;;;22.38;;
32198;SDS011;73953;42.656;21.156;2024-02-04T01:35:35;40.40;;;21.77;;
32198;SDS011;73953;42.656;21.156;2024-02-04T01:38:02;38.17;;;21.50;;
32198;SDS011;73953;42.656;21.156;2024-02-04T01:40:29;34.08;;;21.13;;
32198;SDS011;73953;42.656;21.156;2024-02-04T01:42:56;35.50;;;19.88;;
32198;SDS011;73953;42.656;21.156;2024-02-04T01:45:23;29.73;;;17.40;;
32198;SDS011;73953;42.656;21.156;2024-02-04T01:47:52;27.52;;;17.20;;
32198;SDS011;73953;42.656;21.156;2024-02-04T01:50:20;38.67;;;20.88;;
32198;SDS011;73953;42.656;21.156;2024-02-04T01:52:47;32.50;;;18.05;;
32198;SDS011;73953;42.656;21.156;2024-02-04T01:55:15;39.40;;;22.80;;
32198;SDS011;73953;42.656;21.156;2024-02-04T01:57:42;37.58;;;19.75;;
32198;SDS011;73953;42.656;21.156;2024-02-04T02:00:09;29.30;;;18.02;;
32198;SDS011;73953;42.656;21.156;2024-02-04T02:02:40;32.55;;;19.00;;
32198;SDS011;73953;42.656;21.156;2024-02-04T02:05:09;37.10;;;20.23;;
32198;SDS011;73953;42.656;21.156;2024-02-04T02:07:36;36.83;;;19.48;;
32198;SDS011;73953;42.656;21.156;2024-02-04T02:10:04;32.72;;;17.88;;
32198;SDS011;73953;42.656;21.156;2024-02-04T02:12:47;31.42;;;17.05;;
32198;SDS011;73953;42.656;21.156;2024-02-04T02:15:16;30.13;;;16.63;;
32198;SDS011;73953;42.656;21.156;2024-02-04T02:17:48;30.90;;;17.27;;
32198;SDS011;73953;42.656;21.156;2024-02-04T02:20:27;29.75;;;17.00;;
32198;SDS011;73953;42.656;21.156;2024-02-04T02:22:57;35.92;;;18.73;;
32198;SDS011;73953;42.656;21.156;2024-02-04T02:27:54;35.00;;;21.20;;
32198;SDS011;73953;42.656;21.156;2024-02-04T02:30:21;40.20;;;21.55;;
32198;SDS011;73953;42.656;21.156;2024-02-04T02:32:49;35.80;;;20.17;;
32198;SDS011;73953;42.656;21.156;2024-02-04T02:35:16;29.77;;;17.63;;
32198;SDS011;73953;42.656;21.156;2024-02-04T02:40:25;32.50;;;17.17;;
32198;SDS011;73953;42.656;21.156;2024-02-04T02:42:53;33.88;;;17.48;;
32198;SDS011;73953;42.656;21.156;2024-02-04T02:45:22;31.48;;;17.48;;
32198;SDS011;73953;42.656;21.156;2024-02-04T02:47:50;30.85;;;16.98;;
32198;SDS011;73953;42.656;21.156;2024-02-04T02:50:18;26.40;;;14.85;;
32198;SDS011;73953;42.656;21.156;2024-02-04T02:52:45;28.27;;;14.15;;
32198;SDS011;73953;42.656;21.156;2024-02-04T02:55:12;24.50;;;13.80;;
32198;SDS011;73953;42.656;21.156;2024-02-04T02:57:39;27.00;;;13.40;;
32198;SDS011;73953;42.656;21.156;2024-02-04T03:00:06;29.05;;;16.40;;
32198;SDS011;73953;42.656;21.156;2024-02-04T03:02:33;30.20;;;16.50;;
32198;SDS011;73953;42.656;21.156;2024-02-04T03:05:01;31.23;;;17.02;;
32198;SDS011;73953;42.656;21.156;2024-02-04T03:07:28;32.65;;;17.65;;
32198;SDS011;73953;42.656;21.156;2024-02-04T03:09:55;33.88;;;17.92;;
32198;SDS011;73953;42.656;21.156;2024-02-04T03:12:22;34.95;;;17.20;;
32198;SDS011;73953;42.656;21.156;2024-02-04T03:14:49;25.42;;;14.93;;
32198;SDS011;73953;42.656;21.156;2024-02-04T03:17:16;23.23;;;13.75;;
32198;SDS011;73953;42.656;21.156;2024-02-04T03:22:14;24.75;;;14.30;;
32198;SDS011;73953;42.656;21.156;2024-02-04T03:24:41;20.15;;;11.48;;
32198;SDS011;73953;42.656;21.156;2024-02-04T03:27:08;21.20;;;11.93;;
32198;SDS011;73953;42.656;21.156;2024-02-04T03:29:35;19.02;;;12.38;;
32198;SDS011;73953;42.656;21.156;2024-02-04T03:32:02;23.75;;;12.77;;
32198;SDS011;73953;42.656;21.156;2024-02-04T03:34:30;30.88;;;14.20;;
32198;SDS011;73953;42.656;21.156;2024-02-04T03:36:57;26.35;;;14.48;;
32198;SDS011;73953;42.656;21.156;2024-02-04T03:39:24;23.92;;;13.90;;
32198;SDS011;73953;42.656;21.156;2024-02-04T03:41:51;28.48;;;15.32;;
32198;SDS011;73953;42.656;21.156;2024-02-04T03:44:18;31.88;;;18.10;;
32198;SDS011;73953;42.656;21.156;2024-02-04T03:46:48;25.45;;;15.25;;
32198;SDS011;73953;42.656;21.156;2024-02-04T03:49:15;25.70;;;14.47;;
32198;SDS011;73953;42.656;21.156;2024-02-04T03:51:44;21.17;;;13.40;;
32198;SDS011;73953;42.656;21.156;2024-02-04T03:54:11;18.48;;;12.40;;
32198;SDS011;73953;42.656;21.156;2024-02-04T03:56:38;22.60;;;11.95;;
32198;SDS011;73953;42.656;21.156;2024-02-04T03:59:07;18.10;;;10.75;;
32198;SDS011;73953;42.656;21.156;2024-02-04T04:01:34;23.38;;;13.75;;
32198;SDS011;73953;42.656;21.156;2024-02-04T04:04:02;20.23;;;12.13;;
32198;SDS011;73953;42.656;21.156;2024-02-04T04:06:29;18.33;;;10.77;;
32198;SDS011;73953;42.656;21.156;2024-02-04T04:08:56;15.35;;;9.25;;
32198;SDS011;73953;42.656;21.156;2024-02-04T04:11:26;15.48;;;8.77;;
32198;SDS011;73953;42.656;21.156;2024-02-04T04:13:53;16.13;;;10.38;;
32198;SDS011;73953;42.656;21.156;2024-02-04T04:16:20;15.32;;;9.43;;
32198;SDS011;73953;42.656;21.156;2024-02-04T04:18:47;13.80;;;9.15;;
32198;SDS011;73953;42.656;21.156;2024-02-04T04:21:14;15.82;;;9.40;;
32198;SDS011;73953;42.656;21.156;2024-02-04T04:23:41;18.20;;;9.00;;
32198;SDS011;73953;42.656;21.156;2024-02-04T04:26:08;16.23;;;9.95;;
32198;SDS011;73953;42.656;21.156;2024-02-04T04:28:38;21.92;;;9.48;;
32198;SDS011;73953;42.656;21.156;2024-02-04T04:31:05;18.10;;;11.00;;
32198;SDS011;73953;42.656;21.156;2024-02-04T04:33:32;19.48;;;11.57;;
32198;SDS011;73953;42.656;21.156;2024-02-04T04:35:59;21.33;;;12.57;;
32198;SDS011;73953;42.656;21.156;2024-02-04T04:38:26;26.67;;;13.80;;
32198;SDS011;73953;42.656;21.156;2024-02-04T04:40:53;21.48;;;12.40;;
32198;SDS011;73953;42.656;21.156;2024-02-04T04:43:20;20.67;;;10.70;;
32198;SDS011;73953;42.656;21.156;2024-02-04T04:45:47;23.00;;;10.63;;
32198;SDS011;73953;42.656;21.156;2024-02-04T04:48:14;18.52;;;10.25;;
32198;SDS011;73953;42.656;21.156;2024-02-04T04:50:41;15.38;;;9.05;;
32198;SDS011;73953;42.656;21.156;2024-02-04T04:53:08;13.38;;;7.88;;
32198;SDS011;73953;42.656;21.156;2024-02-04T04:55:36;14.32;;;8.10;;
32198;SDS011;73953;42.656;21.156;2024-02-04T04:58:06;11.45;;;7.10;;
32198;SDS011;73953;42.656;21.156;2024-02-04T05:00:33;11.73;;;7.30;;
32198;SDS011;73953;42.656;21.156;2024-02-04T05:03:00;13.50;;;8.23;;
32198;SDS011;73953;42.656;21.156;2024-02-04T05:05:27;14.65;;;7.38;;
32198;SDS011;73953;42.656;21.156;2024-02-04T05:07:54;13.32;;;7.50;;
32198;SDS011;73953;42.656;21.156;2024-02-04T05:10:21;12.95;;;7.93;;
32198;SDS011;73953;42.656;21.156;2024-02-04T05:12:48;13.25;;;8.35;;
32198;SDS011;73953;42.656;21.156;2024-02-04T05:15:15;13.30;;;7.57;;
32198;SDS011;73953;42.656;21.156;2024-02-04T05:17:42;14.63;;;8.90;;
32198;SDS011;73953;42.656;21.156;2024-02-04T05:20:09;14.80;;;9.40;;
32198;SDS011;73953;42.656;21.156;2024-02-04T05:22:37;13.75;;;8.43;;
32198;SDS011;73953;42.656;21.156;2024-02-04T05:25:04;15.05;;;8.88;;
32198;SDS011;73953;42.656;21.156;2024-02-04T05:27:33;14.23;;;8.48;;
32198;SDS011;73953;42.656;21.156;2024-02-04T05:30:01;16.23;;;9.65;;
32198;SDS011;73953;42.656;21.156;2024-02-04T05:32:29;17.80;;;10.55;;
32198;SDS011;73953;42.656;21.156;2024-02-04T05:34:56;18.48;;;10.50;;
32198;SDS011;73953;42.656;21.156;2024-02-04T05:37:23;15.05;;;9.48;;
32198;SDS011;73953;42.656;21.156;2024-02-04T05:39:50;15.40;;;9.77;;
32198;SDS011;73953;42.656;21.156;2024-02-04T05:42:17;17.67;;;9.63;;
32198;SDS011;73953;42.656;21.156;2024-02-04T05:44:44;16.77;;;9.32;;
32198;SDS011;73953;42.656;21.156;2024-02-04T05:47:11;21.92;;;10.93;;
32198;SDS011;73953;42.656;21.156;2024-02-04T05:49:38;19.08;;;10.73;;
32198;SDS011;73953;42.656;21.156;2024-02-04T05:52:06;22.75;;;15.07;;
32198;SDS011;73953;42.656;21.156;2024-02-04T05:54:36;54.88;;;36.60;;
32198;SDS011;73953;42.656;21.156;2024-02-04T05:57:04;27.33;;;18.92;;
32198;SDS011;73953;42.656;21.156;2024-02-04T05:59:31;28.08;;;17.98;;
32198;SDS011;73953;42.656;21.156;2024-02-04T06:01:58;22.85;;;16.08;;
32198;SDS011;73953;42.656;21.156;2024-02-04T06:04:25;18.23;;;11.75;;
32198;SDS011;73953;42.656;21.156;2024-02-04T06:06:52;18.50;;;11.80;;
32198;SDS011;73953;42.656;21.156;2024-02-04T06:09:19;19.95;;;11.82;;
32198;SDS011;73953;42.656;21.156;2024-02-04T06:11:46;17.35;;;11.05;;
32198;SDS011;73953;42.656;21.156;2024-02-04T06:14:13;17.45;;;10.73;;
32198;SDS011;73953;42.656;21.156;2024-02-04T06:16:40;25.15;;;13.40;;
32198;SDS011;73953;42.656;21.156;2024-02-04T06:19:07;24.05;;;12.07;;
32198;SDS011;73953;42.656;21.156;2024-02-04T06:21:36;23.60;;;13.57;;
32198;SDS011;73953;42.656;21.156;2024-02-04T06:24:03;23.88;;;15.13;;
32198;SDS011;73953;42.656;21.156;2024-02-04T06:26:30;27.30;;;14.95;;
32198;SDS011;73953;42.656;21.156;2024-02-04T06:28:57;25.45;;;14.65;;
32198;SDS011;73953;42.656;21.156;2024-02-04T06:31:24;22.42;;;13.35;;
32198;SDS011;73953;42.656;21.156;2024-02-04T06:33:51;21.95;;;12.90;;
32198;SDS011;73953;42.656;21.156;2024-02-04T06:36:18;22.92;;;13.88;;
32198;SDS011;73953;42.656;21.156;2024-02-04T06:38:46;23.88;;;12.68;;
32198;SDS011;73953;42.656;21.156;2024-02-04T06:41:13;26.30;;;12.57;;
32198;SDS011;73953;42.656;21.156;2024-02-04T06:43:39;23.88;;;14.32;;
32198;SDS011;73953;42.656;21.156;2024-02-04T06:46:07;24.90;;;15.77;;
32198;SDS011;73953;42.656;21.156;2024-02-04T06:48:34;34.85;;;17.25;;
32198;SDS011;73953;42.656;21.156;2024-02-04T06:51:01;26.35;;;15.55;;
32198;SDS011;73953;42.656;21.156;2024-02-04T06:53:29;28.52;;;16.58;;
32198;SDS011;73953;42.656;21.156;2024-02-04T06:55:57;29.10;;;17.38;;
32198;SDS011;73953;42.656;21.156;2024-02-04T06:58:24;27.00;;;16.45;;
32198;SDS011;73953;42.656;21.156;2024-02-04T07:00:51;27.13;;;16.13;;
32198;SDS011;73953;42.656;21.156;2024-02-04T07:03:18;31.52;;;16.58;;
32198;SDS011;73953;42.656;21.156;2024-02-04T07:05:45;30.52;;;15.77;;
32198;SDS011;73953;42.656;21.156;2024-02-04T07:08:14;29.17;;;16.00;;
32198;SDS011;73953;42.656;21.156;2024-02-04T07:10:41;26.17;;;16.13;;
32198;SDS011;73953;42.656;21.156;2024-02-04T07:13:08;33.63;;;17.23;;
32198;SDS011;73953;42.656;21.156;2024-02-04T07:15:35;32.60;;;18.25;;
32198;SDS011;73953;42.656;21.156;2024-02-04T07:18:04;34.20;;;20.48;;
32198;SDS011;73953;42.656;21.156;2024-02-04T07:20:31;42.38;;;20.73;;
32198;SDS011;73953;42.656;21.156;2024-02-04T07:22:59;33.83;;;20.55;;
32198;SDS011;73953;42.656;21.156;2024-02-04T07:25:26;31.92;;;18.67;;
32198;SDS011;73953;42.656;21.156;2024-02-04T07:27:53;34.75;;;17.98;;
32198;SDS011;73953;42.656;21.156;2024-02-04T07:30:20;27.85;;;17.00;;
32198;SDS011;73953;42.656;21.156;2024-02-04T07:32:48;29.52;;;17.30;;
32198;SDS011;73953;42.656;21.156;2024-02-04T07:35:15;31.15;;;17.65;;
32198;SDS011;73953;42.656;21.156;2024-02-04T07:37:42;30.52;;;17.90;;
32198;SDS011;73953;42.656;21.156;2024-02-04T07:40:09;33.65;;;18.38;;
32198;SDS011;73953;42.656;21.156;2024-02-04T07:42:36;34.85;;;20.55;;
32198;SDS011;73953;42.656;21.156;2024-02-04T07:45:03;39.63;;;20.38;;
32198;SDS011;73953;42.656;21.156;2024-02-04T07:47:36;54.25;;;22.65;;
32198;SDS011;73953;42.656;21.156;2024-02-04T07:50:06;42.13;;;23.33;;
32198;SDS011;73953;42.656;21.156;2024-02-04T07:52:33;49.05;;;23.98;;
32198;SDS011;73953;42.656;21.156;2024-02-04T07:55:00;45.35;;;24.40;;
32198;SDS011;73953;42.656;21.156;2024-02-04T07:57:27;43.63;;;24.45;;
32198;SDS011;73953;42.656;21.156;2024-02-04T07:59:54;48.30;;;24.20;;
32198;SDS011;73953;42.656;21.156;2024-02-04T08:02:22;48.45;;;26.15;;
32198;SDS011;73953;42.656;21.156;2024-02-04T08:04:49;50.75;;;25.92;;
32198;SDS011;73953;42.656;21.156;2024-02-04T08:07:16;48.85;;;26.30;;
32198;SDS011;73953;42.656;21.156;2024-02-04T08:09:44;51.50;;;27.27;;
32198;SDS011;73953;42.656;21.156;2024-02-04T08:12:12;48.65;;;26.02;;
32198;SDS011;73953;42.656;21.156;2024-02-04T08:14:39;52.83;;;27.95;;
32198;SDS011;73953;42.656;21.156;2024-02-04T08:17:06;57.97;;;27.95;;
32198;SDS011;73953;42.656;21.156;2024-02-04T08:19:33;56.65;;;28.33;;
32198;SDS011;73953;42.656;21.156;2024-02-04T08:22:00;49.70;;;25.80;;
32198;SDS011;73953;42.656;21.156;2024-02-04T08:24:27;44.03;;;25.30;;
32198;SDS011;73953;42.656;21.156;2024-02-04T08:26:56;50.17;;;24.10;;
32198;SDS011;73953;42.656;21.156;2024-02-04T08:29:23;44.53;;;24.35;;
32198;SDS011;73953;42.656;21.156;2024-02-04T08:31:52;44.22;;;24.42;;
32198;SDS011;73953;42.656;21.156;2024-02-04T08:34:19;47.92;;;24.77;;
32198;SDS011;73953;42.656;21.156;2024-02-04T08:36:53;56.72;;;24.38;;
32198;SDS011;73953;42.656;21.156;2024-02-04T08:39:20;49.10;;;24.67;;
32198;SDS011;73953;42.656;21.156;2024-02-04T08:41:47;57.50;;;29.42;;
32198;SDS011;73953;42.656;21.156;2024-02-04T08:44:14;53.90;;;28.27;;
32198;SDS011;73953;42.656;21.156;2024-02-04T08:46:58;52.20;;;25.33;;
32198;SDS011;73953;42.656;21.156;2024-02-04T08:49:26;59.42;;;26.77;;
32198;SDS011;73953;42.656;21.156;2024-02-04T08:51:55;59.67;;;27.15;;
32198;SDS011;73953;42.656;21.156;2024-02-04T08:54:22;61.45;;;27.10;;
32198;SDS011;73953;42.656;21.156;2024-02-04T08:56:49;49.20;;;26.42;;
32198;SDS011;73953;42.656;21.156;2024-02-04T08:59:16;82.22;;;40.42;;
32198;SDS011;73953;42.656;21.156;2024-02-04T09:01:43;146.07;;;63.58;;
32198;SDS011;73953;42.656;21.156;2024-02-04T09:04:10;57.20;;;31.73;;
32198;SDS011;73953;42.656;21.156;2024-02-04T09:06:37;73.03;;;37.97;;
32198;SDS011;73953;42.656;21.156;2024-02-04T09:09:04;60.08;;;29.75;;
32198;SDS011;73953;42.656;21.156;2024-02-04T09:11:31;45.00;;;27.70;;
32198;SDS011;73953;42.656;21.156;2024-02-04T09:13:58;61.53;;;32.28;;
32198;SDS011;73953;42.656;21.156;2024-02-04T09:16:25;49.80;;;27.20;;
32198;SDS011;73953;42.656;21.156;2024-02-04T09:18:52;58.85;;;29.80;;
32198;SDS011;73953;42.656;21.156;2024-02-04T09:21:19;52.05;;;26.25;;
32198;SDS011;73953;42.656;21.156;2024-02-04T09:23:47;46.65;;;24.38;;
32198;SDS011;73953;42.656;21.156;2024-02-04T09:26:14;41.70;;;24.67;;
32198;SDS011;73953;42.656;21.156;2024-02-04T09:28:45;54.67;;;23.67;;
32198;SDS011;73953;42.656;21.156;2024-02-04T09:31:12;46.05;;;23.70;;
32198;SDS011;73953;42.656;21.156;2024-02-04T09:33:39;46.80;;;21.55;;
32198;SDS011;73953;42.656;21.156;2024-02-04T09:36:07;51.92;;;26.23;;
32198;SDS011;73953;42.656;21.156;2024-02-04T09:38:36;44.17;;;22.90;;
32198;SDS011;73953;42.656;21.156;2024-02-04T09:41:03;38.35;;;20.67;;
32198;SDS011;73953;42.656;21.156;2024-02-04T09:43:32;40.50;;;22.38;;
32198;SDS011;73953;42.656;21.156;2024-02-04T09:45:59;46.95;;;24.48;;
32198;SDS011;73953;42.656;21.156;2024-02-04T09:48:31;18.30;;;10.73;;
32198;SDS011;73953;42.656;21.156;2024-02-04T09:50:59;21.05;;;11.98;;
32198;SDS011;73953;42.656;21.156;2024-02-04T09:53:33;14.88;;;7.13;;
32198;SDS011;73953;42.656;21.156;2024-02-04T09:56:02;11.88;;;6.70;;
32198;SDS011;73953;42.656;21.156;2024-02-04T09:58:30;12.35;;;6.30;;
32198;SDS011;73953;42.656;21.156;2024-02-04T10:00:58;14.43;;;7.72;;
32198;SDS011;73953;42.656;21.156;2024-02-04T10:03:26;11.73;;;6.97;;
32198;SDS011;73953;42.656;21.156;2024-02-04T10:05:53;11.13;;;6.15;;
32198;SDS011;73953;42.656;21.156;2024-02-04T10:08:21;37.45;;;19.73;;
32198;SDS011;73953;42.656;21.156;2024-02-04T10:10:48;13.77;;;7.88;;
32198;SDS011;73953;42.656;21.156;2024-02-04T10:13:16;25.20;;;13.07;;
32198;SDS011;73953;42.656;21.156;2024-02-04T10:15:43;19.23;;;7.65;;
32198;SDS011;73953;42.656;21.156;2024-02-04T10:18:10;12.45;;;5.55;;
32198;SDS011;73953;42.656;21.156;2024-02-04T10:20:37;14.70;;;5.47;;
32198;SDS011;73953;42.656;21.156;2024-02-04T10:23:04;10.63;;;4.80;;
32198;SDS011;73953;42.656;21.156;2024-02-04T10:25:31;9.80;;;5.72;;
32198;SDS011;73953;42.656;21.156;2024-02-04T10:27:58;10.55;;;5.00;;
32198;SDS011;73953;42.656;21.156;2024-02-04T10:30:26;15.00;;;7.43;;
32198;SDS011;73953;42.656;21.156;2024-02-04T10:32:53;8.73;;;5.25;;
32198;SDS011;73953;42.656;21.156;2024-02-04T10:35:21;10.02;;;5.07;;
32198;SDS011;73953;42.656;21.156;2024-02-04T10:37:50;8.93;;;4.80;;
32198;SDS011;73953;42.656;21.156;2024-02-04T10:40:18;11.45;;;5.68;;
32198;SDS011;73953;42.656;21.156;2024-02-04T10:42:46;11.65;;;5.38;;
32198;SDS011;73953;42.656;21.156;2024-02-04T10:45:13;12.23;;;6.10;;
32198;SDS011;73953;42.656;21.156;2024-02-04T10:47:43;11.65;;;5.90;;
32198;SDS011;73953;42.656;21.156;2024-02-04T10:50:15;10.50;;;5.80;;
32198;SDS011;73953;42.656;21.156;2024-02-04T10:52:43;10.75;;;5.25;;
32198;SDS011;73953;42.656;21.156;2024-02-04T10:55:11;8.75;;;4.97;;
32198;SDS011;73953;42.656;21.156;2024-02-04T10:57:38;8.48;;;4.68;;
32198;SDS011;73953;42.656;21.156;2024-02-04T11:00:06;8.00;;;4.80;;
32198;SDS011;73953;42.656;21.156;2024-02-04T11:02:39;10.05;;;4.40;;
32198;SDS011;73953;42.656;21.156;2024-02-04T11:05:07;11.00;;;5.00;;
32198;SDS011;73953;42.656;21.156;2024-02-04T11:07:35;6.70;;;3.67;;
32198;SDS011;73953;42.656;21.156;2024-02-04T11:10:02;10.43;;;4.43;;
32198;SDS011;73953;42.656;21.156;2024-02-04T11:12:30;6.72;;;3.22;;
32198;SDS011;73953;42.656;21.156;2024-02-04T11:15:01;5.95;;;3.47;;
32198;SDS011;73953;42.656;21.156;2024-02-04T11:17:50;5.75;;;3.78;;
32198;SDS011;73953;42.656;21.156;2024-02-04T11:28:04;42.30;;;9.77;;
32198;SDS011;73953;42.656;21.156;2024-02-04T11:30:34;43.13;;;10.77;;
32198;SDS011;73953;42.656;21.156;2024-02-04T11:33:03;54.80;;;11.82;;
32198;SDS011;73953;42.656;21.156;2024-02-04T11:35:31;59.70;;;13.13;;
32198;SDS011;73953;42.656;21.156;2024-02-04T11:38:00;54.13;;;10.98;;
32198;SDS011;73953;42.656;21.156;2024-02-04T11:40:31;67.07;;;16.45;;
32198;SDS011;73953;42.656;21.156;2024-02-04T11:43:11;52.58;;;14.20;;
32198;SDS011;73953;42.656;21.156;2024-02-04T11:45:39;44.97;;;12.98;;
32198;SDS011;73953;42.656;21.156;2024-02-04T11:48:07;46.22;;;13.18;;
32198;SDS011;73953;42.656;21.156;2024-02-04T11:50:37;31.02;;;9.65;;
32198;SDS011;73953;42.656;21.156;2024-02-04T11:53:06;42.60;;;9.02;;
32198;SDS011;73953;42.656;21.156;2024-02-04T11:55:34;26.00;;;8.30;;
32198;SDS011;73953;42.656;21.156;2024-02-04T11:58:02;52.20;;;14.38;;
32198;SDS011;73953;42.656;21.156;2024-02-04T12:00:32;160.20;;;29.50;;
32198;SDS011;73953;42.656;21.156;2024-02-04T12:02:59;48.60;;;13.63;;
32198;SDS011;73953;42.656;21.156;2024-02-04T12:05:27;37.47;;;9.52;;
32198;SDS011;73953;42.656;21.156;2024-02-04T12:07:54;32.08;;;7.43;;
32198;SDS011;73953;42.656;21.156;2024-02-04T12:10:22;18.10;;;6.43;;
32198;SDS011;73953;42.656;21.156;2024-02-04T12:12:49;12.07;;;6.15;;
32198;SDS011;73953;42.656;21.156;2024-02-04T12:15:17;14.50;;;4.65;;
32198;SDS011;73953;42.656;21.156;2024-02-04T12:17:44;7.75;;;3.63;;
32198;SDS011;73953;42.656;21.156;2024-02-04T12:20:11;11.02;;;4.43;;
32198;SDS011;73953;42.656;21.156;2024-02-04T12:22:38;13.20;;;4.45;;
32198;SDS011;73953;42.656;21.156;2024-02-04T12:25:05;10.07;;;5.28;;
32198;SDS011;73953;42.656;21.156;2024-02-04T12:27:33;11.60;;;5.97;;
32198;SDS011;73953;42.656;21.156;2024-02-04T12:30:01;24.00;;;11.23;;
32198;SDS011;73953;42.656;21.156;2024-02-04T12:32:28;28.30;;;11.45;;
32198;SDS011;73953;42.656;21.156;2024-02-04T12:34:55;25.70;;;8.60;;
32198;SDS011;73953;42.656;21.156;2024-02-04T12:37:23;11.77;;;5.07;;
32198;SDS011;73953;42.656;21.156;2024-02-04T12:39:51;9.80;;;4.05;;
32198;SDS011;73953;42.656;21.156;2024-02-04T12:42:18;8.25;;;4.40;;
32198;SDS011;73953;42.656;21.156;2024-02-04T12:44:47;11.38;;;5.15;;
32198;SDS011;73953;42.656;21.156;2024-02-04T12:47:18;18.58;;;8.25;;
32198;SDS011;73953;42.656;21.156;2024-02-04T12:49:45;16.42;;;6.93;;
32198;SDS011;73953;42.656;21.156;2024-02-04T12:52:13;16.02;;;5.95;;
32198;SDS011;73953;42.656;21.156;2024-02-04T12:54:43;11.48;;;5.45;;
32198;SDS011;73953;42.656;21.156;2024-02-04T12:57:10;38.17;;;17.77;;
32198;SDS011;73953;42.656;21.156;2024-02-04T12:59:48;55.05;;;23.20;;
32198;SDS011;73953;42.656;21.156;2024-02-04T13:02:14;37.15;;;17.55;;
32198;SDS011;73953;42.656;21.156;2024-02-04T13:04:42;18.70;;;8.68;;
32198;SDS011;73953;42.656;21.156;2024-02-04T13:07:11;17.15;;;8.43;;
32198;SDS011;73953;42.656;21.156;2024-02-04T13:09:43;16.42;;;8.32;;
32198;SDS011;73953;42.656;21.156;2024-02-04T13:12:11;43.08;;;21.23;;
32198;SDS011;73953;42.656;21.156;2024-02-04T13:14:41;26.90;;;15.32;;
32198;SDS011;73953;42.656;21.156;2024-02-04T13:17:08;21.08;;;10.52;;
32198;SDS011;73953;42.656;21.156;2024-02-04T13:19:37;12.40;;;6.63;;
32198;SDS011;73953;42.656;21.156;2024-02-04T13:22:06;17.25;;;9.45;;
32198;SDS011;73953;42.656;21.156;2024-02-04T13:24:36;10.77;;;6.43;;
32198;SDS011;73953;42.656;21.156;2024-02-04T13:27:03;13.93;;;8.02;;
32198;SDS011;73953;42.656;21.156;2024-02-04T13:29:34;11.45;;;5.88;;
32198;SDS011;73953;42.656;21.156;2024-02-04T13:32:01;9.35;;;5.70;;
32198;SDS011;73953;42.656;21.156;2024-02-04T13:34:28;14.88;;;7.93;;
32198;SDS011;73953;42.656;21.156;2024-02-04T13:36:55;20.80;;;8.75;;
32198;SDS011;73953;42.656;21.156;2024-02-04T13:39:22;19.40;;;8.60;;
32198;SDS011;73953;42.656;21.156;2024-02-04T13:41:49;29.40;;;13.52;;
32198;SDS011;73953;42.656;21.156;2024-02-04T13:44:16;26.50;;;11.02;;
32198;SDS011;73953;42.656;21.156;2024-02-04T13:46:43;33.80;;;15.05;;
32198;SDS011;73953;42.656;21.156;2024-02-04T13:49:10;8.00;;;4.82;;
32198;SDS011;73953;42.656;21.156;2024-02-04T13:51:39;8.05;;;3.70;;
32198;SDS011;73953;42.656;21.156;2024-02-04T13:54:11;9.60;;;4.90;;
32198;SDS011;73953;42.656;21.156;2024-02-04T13:56:44;10.30;;;5.28;;
32198;SDS011;73953;42.656;21.156;2024-02-04T13:59:11;10.65;;;5.45;;
32198;SDS011;73953;42.656;21.156;2024-02-04T14:01:39;8.60;;;5.03;;
32198;SDS011;73953;42.656;21.156;2024-02-04T14:04:06;11.35;;;6.03;;
32198;SDS011;73953;42.656;21.156;2024-02-04T14:06:36;19.98;;;7.47;;
32198;SDS011;73953;42.656;21.156;2024-02-04T14:09:03;12.00;;;5.93;;
32198;SDS011;73953;42.656;21.156;2024-02-04T14:11:32;60.05;;;36.95;;
32198;SDS011;73953;42.656;21.156;2024-02-04T14:14:01;60.35;;;36.50;;
32198;SDS011;73953;42.656;21.156;2024-02-04T14:16:28;15.73;;;8.80;;
32198;SDS011;73953;42.656;21.156;2024-02-04T14:18:56;15.18;;;7.40;;
32198;SDS011;73953;42.656;21.156;2024-02-04T14:21:27;16.80;;;7.18;;
32198;SDS011;73953;42.656;21.156;2024-02-04T14:23:54;11.40;;;6.18;;
32198;SDS011;73953;42.656;21.156;2024-02-04T14:26:21;15.70;;;6.78;;
32198;SDS011;73953;42.656;21.156;2024-02-04T14:28:48;16.02;;;8.95;;
32198;SDS011;73953;42.656;21.156;2024-02-04T14:31:15;50.17;;;24.38;;
32198;SDS011;73953;42.656;21.156;2024-02-04T14:33:42;107.88;;;47.70;;